Time;durP1;ratioP1;P1;durP2;ratioP2;P2;SDS_P1;SDS_P2;PMS_P1;PMS_P2;Temp;Humidity;BMP_temperature;BMP_pressure;BME280_temperature;BME280_humidity;BME280_pressure;Samples;Min_cycle;Max_cycle;Signal;HPM_P1;HPM_P2
2021/11/17 02:27:26;;;;;;;16.30;10.37;;;;;;;3.69;100.00;98359.19;4984473;28;20516;-75
2021/11/17 02:30:26;;;;;;;12.13;9.83;;;;;;;3.69;100.00;98360.03;5018374;28;20214;-74
2021/11/17 02:33:17;;;;;;;14.90;9.70;;;;;;;3.65;100.00;98353.34;4999050;28;20471;-74
2021/11/17 02:36:07;;;;;;;14.50;9.53;;;;;;;3.71;100.00;98352.06;5011757;28;20691;-75
2021/11/17 02:38:52;;;;;;;15.00;9.80;;;;;;;3.70;100.00;98360.88;5017533;28;20573;-71
2021/11/17 02:41:33;;;;;;;15.13;9.90;;;;;;;3.68;100.00;98365.38;4988025;28;22089;-76
2021/11/17 02:44:22;;;;;;;21.73;12.13;;;;;;;3.70;100.00;98358.25;5020466;28;20235;-74
2021/11/17 02:47:07;;;;;;;16.87;10.10;;;;;;;3.73;100.00;98358.88;5023861;28;20214;-73
2021/11/17 02:49:51;;;;;;;14.73;10.03;;;;;;;3.76;100.00;98356.03;5021538;28;20208;-73
2021/11/17 02:52:40;;;;;;;16.93;10.60;;;;;;;3.74;100.00;98351.81;5011301;28;20445;-74
2021/11/17 02:55:25;;;;;;;19.00;10.20;;;;;;;3.77;100.00;98351.59;5022386;28;20200;-76
2021/11/17 02:58:10;;;;;;;16.23;9.93;;;;;;;3.78;100.00;98352.44;4988502;28;20223;-74
2021/11/17 03:01:02;;;;;;;17.53;10.43;;;;;;;3.75;100.00;98349.09;5016317;28;20711;-76
2021/11/17 03:03:46;;;;;;;12.67;9.63;;;;;;;3.73;100.00;98348.38;5020838;28;20565;-74
2021/11/17 03:06:47;;;;;;;13.80;9.77;;;;;;;3.73;100.00;98358.88;5011366;28;20435;-77
2021/11/17 03:10:02;;;;;;;17.03;10.30;;;;;;;3.76;100.00;98357.78;5007785;28;20210;-75
2021/11/17 03:13:04;;;;;;;16.27;10.10;;;;;;;3.74;100.00;98357.06;4969374;28;20220;-75
2021/11/17 03:15:46;;;;;;;14.60;10.50;;;;;;;3.76;100.00;98360.41;4977712;28;20208;-75
2021/11/17 03:18:40;;;;;;;15.93;10.43;;;;;;;3.71;100.00;98362.53;5019374;28;20214;-72
2021/11/17 03:21:45;;;;;;;15.93;10.90;;;;;;;3.69;100.00;98367.91;5005681;28;20224;-74
2021/11/17 03:24:31;;;;;;;19.83;10.63;;;;;;;3.62;100.00;98372.75;5014701;28;20764;-74
2021/11/17 03:27:16;;;;;;;14.20;9.77;;;;;;;3.61;100.00;98365.84;5023233;28;20274;-75
2021/11/17 03:29:58;;;;;;;15.23;10.33;;;;;;;3.67;100.00;98361.94;4986174;28;20311;-73
2021/11/17 03:32:41;;;;;;;12.97;9.43;;;;;;;3.68;100.00;98363.63;5008491;28;20232;-74
2021/11/17 03:35:42;;;;;;;15.47;10.40;;;;;;;3.72;100.00;98359.81;4992085;28;20222;-75
2021/11/17 03:38:31;;;;;;;13.40;9.83;;;;;;;3.72;100.00;98358.97;5008894;28;20390;-74
2021/11/17 03:41:25;;;;;;;13.97;10.47;;;;;;;3.73;100.00;98358.88;5016806;28;20235;-74
2021/11/17 03:44:24;;;;;;;14.90;9.87;;;;;;;3.71;100.00;98358.16;5020548;28;20508;-74
2021/11/17 03:47:05;;;;;;;14.10;10.87;;;;;;;3.76;100.00;98357.78;4987977;28;20216;-73
2021/11/17 03:49:54;;;;;;;14.63;10.50;;;;;;;3.74;100.00;98359.69;5017197;28;20974;-75
2021/11/17 03:52:41;;;;;;;11.23;8.80;;;;;;;3.77;100.00;98362.09;5018080;28;20220;-75
2021/11/17 03:55:57;;;;;;;14.07;10.70;;;;;;;3.73;100.00;98361.50;5009748;28;20704;-75
2021/11/17 03:58:37;;;;;;;13.30;10.03;;;;;;;3.67;100.00;98363.72;4974903;28;20206;-75
2021/11/17 04:01:27;;;;;;;10.23;8.47;;;;;;;3.70;100.00;98355.63;4971354;28;21221;-75
2021/11/17 04:04:13;;;;;;;10.27;9.27;;;;;;;3.69;100.00;98353.94;5008175;28;20209;-72
2021/11/17 04:07:00;;;;;;;10.63;9.53;;;;;;;3.64;100.00;98354.31;5020088;28;20580;-73
2021/11/17 04:09:42;;;;;;;13.90;10.50;;;;;;;3.62;100.00;98354.41;5019523;28;20217;-75
2021/11/17 04:12:26;;;;;;;14.20;10.97;;;;;;;3.63;100.00;98355.25;5016451;28;20219;-75
2021/11/17 04:15:13;;;;;;;13.33;10.70;;;;;;;3.58;100.00;98352.09;5017493;28;20220;-73
2021/11/17 04:17:51;;;;;;;11.30;9.73;;;;;;;3.60;100.00;98353.69;4977505;28;20236;-74
2021/11/17 04:20:32;;;;;;;13.57;10.60;;;;;;;3.67;100.00;98358.47;5016939;28;20758;-76
2021/11/17 04:23:25;;;;;;;12.87;9.20;;;;;;;3.61;100.00;98365.00;5014793;28;20246;-75
2021/11/17 04:26:09;;;;;;;12.47;10.80;;;;;;;3.60;100.00;98368.59;5016393;28;20220;-74
2021/11/17 04:28:51;;;;;;;11.73;9.87;;;;;;;3.60;100.00;98363.34;5017767;28;20843;-74
2021/11/17 04:31:39;;;;;;;13.30;10.27;;;;;;;3.68;100.00;98366.22;4985710;28;20604;-73
2021/11/17 04:34:35;;;;;;;12.90;10.17;;;;;;;3.65;100.00;98365.59;5011094;28;20395;-75
2021/11/17 04:37:38;;;;;;;13.17;9.90;;;;;;;3.67;100.00;98361.09;5017165;28;20207;-75
2021/11/17 04:40:36;;;;;;;11.90;9.63;;;;;;;3.70;100.00;98366.97;5016934;28;20350;-75
2021/11/17 04:43:19;;;;;;;13.43;9.60;;;;;;;3.65;100.00;98368.22;5014436;28;20704;-74
2021/11/17 04:45:59;;;;;;;10.80;9.07;;;;;;;3.61;100.00;98375.50;4993657;28;20224;-73
2021/11/17 04:48:44;;;;;;;11.83;9.60;;;;;;;3.57;100.00;98368.78;5017761;28;20208;-75
2021/11/17 04:51:31;;;;;;;13.10;9.90;;;;;;;3.59;100.00;98379.97;5021053;28;20222;-74
2021/11/17 04:54:16;;;;;;;11.33;9.93;;;;;;;3.62;100.00;98375.38;5017118;28;20213;-74
2021/11/17 04:57:02;;;;;;;11.30;10.20;;;;;;;3.59;100.00;98372.13;5018958;28;20483;-76
2021/11/17 04:59:47;;;;;;;12.67;10.37;;;;;;;3.62;100.00;98371.94;5019012;28;20208;-74
2021/11/17 05:02:36;;;;;;;13.87;10.47;;;;;;;3.59;100.00;98372.13;4976948;28;20589;-75
2021/11/17 05:05:34;;;;;;;9.97;8.50;;;;;;;3.69;100.00;98370.53;5003069;28;20403;-78
2021/11/17 05:08:10;;;;;;;11.77;10.50;;;;;;;3.61;100.00;98371.06;5005250;28;20214;-74
2021/11/17 05:10:49;;;;;;;11.20;9.70;;;;;;;3.61;100.00;98375.50;5016732;28;20227;-74
2021/11/17 05:13:28;;;;;;;13.97;10.27;;;;;;;3.58;100.00;98378.31;5012695;28;20202;-75
2021/11/17 05:16:14;;;;;;;13.53;10.33;;;;;;;3.57;100.00;98374.00;5018608;28;20400;-74
2021/11/17 05:18:51;;;;;;;12.10;10.60;;;;;;;3.56;100.00;98369.72;4984267;28;20903;-75
2021/11/17 05:21:43;;;;;;;12.00;10.47;;;;;;;3.58;100.00;98375.69;4966010;28;20247;-74
2021/11/17 05:24:32;;;;;;;12.90;11.53;;;;;;;3.54;100.00;98369.00;5010960;28;20212;-74
2021/11/17 05:27:13;;;;;;;13.50;9.93;;;;;;;3.53;100.00;98372.56;5016150;28;20216;-75
2021/11/17 05:30:04;;;;;;;12.73;10.73;;;;;;;3.53;100.00;98369.94;5019845;28;20212;-74
2021/11/17 05:32:45;;;;;;;12.53;9.67;;;;;;;3.58;100.00;98373.06;5004686;28;20632;-75
2021/11/17 05:35:31;;;;;;;13.13;11.03;;;;;;;3.56;100.00;98373.19;5012409;28;20215;-73
2021/11/17 05:38:11;;;;;;;13.37;10.90;;;;;;;3.58;100.00;98370.44;4976472;28;20235;-75
2021/11/17 05:40:57;;;;;;;13.57;10.97;;;;;;;3.64;100.00;98370.03;5015086;28;20419;-74
2021/11/17 05:43:38;;;;;;;13.20;10.53;;;;;;;3.59;100.00;98372.13;5011724;28;20205;-72
2021/11/17 05:46:25;;;;;;;11.47;10.17;;;;;;;3.69;100.00;98367.06;5009428;28;20635;-73
2021/11/17 05:49:05;;;;;;;14.13;10.23;;;;;;;3.67;100.00;98375.03;5012686;28;20205;-74
2021/11/17 05:51:51;;;;;;;12.47;9.40;;;;;;;3.54;100.00;98371.63;4993725;28;20423;-71
2021/11/17 05:54:42;;;;;;;12.53;10.00;;;;;;;3.56;100.00;98377.59;4973112;28;20220;-74
2021/11/17 05:57:43;;;;;;;13.07;10.83;;;;;;;3.59;100.00;98378.22;5007655;28;20594;-73
2021/11/17 06:00:41;;;;;;;13.30;10.27;;;;;;;3.58;100.00;98375.69;5021231;28;21233;-76
2021/11/17 06:03:24;;;;;;;14.07;10.23;;;;;;;3.60;100.00;98386.94;5013936;28;20211;-73
2021/11/17 06:05:52;;;;;;;11.53;8.70;;;;;;;3.61;100.00;98385.97;5021361;28;20475;-76
2021/11/17 06:08:20;;;;;;;10.97;8.57;;;;;;;3.60;100.00;98397.41;4974788;28;20303;-74
2021/11/17 06:10:51;;;;;;;10.70;8.67;;;;;;;3.63;100.00;98402.44;5004908;28;20232;-72
2021/11/17 06:13:19;;;;;;;10.87;9.53;;;;;;;3.60;100.00;98405.28;5012227;28;20211;-73
2021/11/17 06:15:48;;;;;;;10.60;9.23;;;;;;;3.67;100.00;98409.13;5016540;28;20620;-75
2021/11/17 06:18:19;;;;;;;13.23;10.30;;;;;;;3.58;100.00;98417.63;5016596;28;20223;-73
2021/11/17 06:20:48;;;;;;;12.90;9.93;;;;;;;3.60;100.00;98415.75;5016713;28;20220;-72
2021/11/17 06:23:22;;;;;;;11.93;9.30;;;;;;;3.58;100.00;98417.63;4987304;28;20838;-74
2021/11/17 06:25:54;;;;;;;14.53;9.60;;;;;;;3.62;100.00;98425.16;5011511;28;20235;-75
2021/11/17 06:28:24;;;;;;;13.10;10.07;;;;;;;3.65;100.00;98425.91;5017104;28;20200;-74
2021/11/17 06:30:52;;;;;;;9.77;8.77;;;;;;;3.65;100.00;98432.00;5032428;28;20220;-76
2021/11/17 06:33:21;;;;;;;12.33;10.53;;;;;;;3.61;100.00;98433.97;5000039;28;20585;-76
2021/11/17 06:35:49;;;;;;;14.63;10.33;;;;;;;3.57;100.00;98429.91;5021818;28;20216;-75
2021/11/17 06:38:19;;;;;;;13.60;10.83;;;;;;;3.63;100.00;98428.63;4982332;28;20557;-75
2021/11/17 06:40:49;;;;;;;12.97;9.53;;;;;;;3.61;100.00;98430.53;4997129;28;20737;-75
2021/11/17 06:43:19;;;;;;;10.17;8.97;;;;;;;3.64;100.00;98427.69;5015775;28;20234;-74
2021/11/17 06:45:52;;;;;;;13.47;10.47;;;;;;;3.65;100.00;98421.50;5014972;28;20288;-72
2021/11/17 06:48:21;;;;;;;10.63;9.03;;;;;;;3.64;100.00;98419.84;5012044;28;20302;-73
2021/11/17 06:50:52;;;;;;;14.60;10.20;;;;;;;3.61;100.00;98426.13;5019999;28;20232;-75
2021/11/17 06:53:21;;;;;;;10.47;9.43;;;;;;;3.65;100.00;98436.38;4992662;28;20217;-73
2021/11/17 06:55:50;;;;;;;15.20;9.53;;;;;;;3.65;100.00;98439.84;5010216;28;20204;-74
2021/11/17 06:58:20;;;;;;;11.63;8.90;;;;;;;3.68;100.00;98444.88;5007939;28;20213;-75
2021/11/17 07:00:50;;;;;;;10.87;9.77;;;;;;;3.66;100.00;98446.78;5021392;28;20715;-73
2021/11/17 07:03:18;;;;;;;12.80;10.37;;;;;;;3.70;100.00;98450.00;5012678;28;20211;-73
2021/11/17 07:05:46;;;;;;;13.77;10.97;;;;;;;3.61;100.00;98448.88;5018540;28;20228;-75
2021/11/17 07:08:14;;;;;;;12.87;10.40;;;;;;;3.68;100.00;98447.50;5022056;28;20204;-73
2021/11/17 07:10:43;;;;;;;14.67;10.70;;;;;;;3.64;100.00;98453.06;4987045;28;20475;-75
2021/11/17 07:13:11;;;;;;;12.10;9.43;;;;;;;3.65;100.00;98450.34;5006119;28;20212;-73
2021/11/17 07:15:41;;;;;;;11.77;9.93;;;;;;;3.66;100.00;98453.78;5024382;28;20604;-76
2021/11/17 07:18:14;;;;;;;13.40;11.00;;;;;;;3.75;100.00;98456.59;5021629;28;20203;-74
2021/11/17 07:20:42;;;;;;;13.03;10.93;;;;;;;3.72;100.00;98454.19;5017913;28;20232;-74
2021/11/17 07:23:11;;;;;;;12.23;10.90;;;;;;;3.69;100.00;98461.41;5019722;28;20585;-73
2021/11/17 07:25:39;;;;;;;13.40;10.57;;;;;;;3.69;100.00;98453.56;4987048;28;20692;-75
2021/11/17 07:28:08;;;;;;;15.13;10.73;;;;;;;3.78;100.00;98455.53;4979451;28;22057;-75
2021/11/17 07:30:38;;;;;;;10.50;8.80;;;;;;;3.81;100.00;98465.81;5015490;28;20669;-75
2021/11/17 07:33:08;;;;;;;13.83;10.90;;;;;;;3.84;100.00;98470.84;5020094;28;20472;-76
2021/11/17 07:35:38;;;;;;;12.47;10.07;;;;;;;3.81;100.00;98472.81;5010796;28;20212;-74
2021/11/17 07:38:08;;;;;;;12.90;10.10;;;;;;;3.78;100.00;98473.03;5015600;28;20227;-76
2021/11/17 07:40:38;;;;;;;31.70;19.30;;;;;;;3.83;100.00;98476.19;5021692;28;20208;-77
2021/11/17 07:43:09;;;;;;;13.97;11.30;;;;;;;3.70;100.00;98489.31;4977691;28;20575;-77
2021/11/17 07:45:38;;;;;;;13.60;11.10;;;;;;;3.72;100.00;98488.28;5018429;28;20263;-77
2021/11/17 07:48:31;;;;;;;12.87;10.23;;;;;;;3.74;100.00;98485.53;5020503;28;20521;-74
2021/11/17 07:51:09;;;;;;;11.80;10.17;;;;;;;3.72;100.00;98484.78;5018367;28;20404;-79
2021/11/17 07:53:37;;;;;;;13.77;11.13;;;;;;;3.75;100.00;98490.66;5024014;28;20673;-77
2021/11/17 07:56:06;;;;;;;12.60;10.23;;;;;;;3.82;100.00;98485.84;5010037;28;20378;-73
2021/11/17 07:58:40;;;;;;;12.67;10.60;;;;;;;3.87;100.00;98490.75;5014328;28;20319;-76
2021/11/17 08:01:09;;;;;;;13.30;10.13;;;;;;;3.86;100.00;98495.16;4982377;28;20251;-77
2021/11/17 08:03:41;;;;;;;12.50;11.00;;;;;;;3.87;100.00;98496.84;5013738;28;20207;-78
2021/11/17 08:06:14;;;;;;;16.67;11.03;;;;;;;3.84;100.00;98504.94;5011519;28;20211;-75
2021/11/17 08:08:43;;;;;;;15.03;11.10;;;;;;;3.88;100.00;98511.63;5019344;28;20688;-77
2021/11/17 08:11:28;;;;;;;14.43;11.20;;;;;;;3.82;100.00;98511.22;5017389;28;21014;-77
2021/11/17 08:14:00;;;;;;;13.40;11.67;;;;;;;3.83;100.00;98520.75;4986975;28;20207;-76
2021/11/17 08:16:28;;;;;;;15.27;10.70;;;;;;;3.89;100.00;98522.94;5015676;28;20348;-76
2021/11/17 08:18:58;;;;;;;13.90;10.93;;;;;;;3.88;100.00;98519.50;5024108;28;20235;-77
2021/11/17 08:21:26;;;;;;;14.73;10.70;;;;;;;3.91;100.00;98516.66;5020176;28;20224;-77
2021/11/17 08:23:54;;;;;;;12.47;10.53;;;;;;;3.98;100.00;98519.69;5020833;28;20200;-74
2021/11/17 08:26:23;;;;;;;11.87;10.13;;;;;;;3.94;100.00;98525.25;5018901;28;20232;-76
2021/11/17 08:28:52;;;;;;;11.57;10.00;;;;;;;4.02;100.00;98521.13;5006721;28;20223;-76
2021/11/17 08:31:24;;;;;;;16.70;11.27;;;;;;;4.14;100.00;98515.94;5002756;28;20688;-76
2021/11/17 08:33:53;;;;;;;13.40;10.33;;;;;;;4.13;100.00;98516.91;5020678;28;20263;-74
2021/11/17 08:36:23;;;;;;;15.10;11.73;;;;;;;4.10;100.00;98519.75;5016453;28;20234;-76
2021/11/17 08:38:54;;;;;;;11.63;9.60;;;;;;;4.10;100.00;98525.81;5021285;28;20690;-74
2021/11/17 08:41:25;;;;;;;13.63;10.27;;;;;;;4.26;100.00;98524.72;5016754;28;20236;-77
2021/11/17 08:43:53;;;;;;;12.03;10.33;;;;;;;4.32;100.00;98521.66;5009360;28;20616;-75
2021/11/17 08:46:22;;;;;;;12.50;9.60;;;;;;;4.44;100.00;98517.31;4985495;28;20885;-76
2021/11/17 08:48:51;;;;;;;12.93;10.77;;;;;;;4.41;100.00;98520.97;5018456;28;20200;-75
2021/11/17 08:51:20;;;;;;;14.20;10.87;;;;;;;4.29;100.00;98521.88;5016199;28;20242;-78
2021/11/17 08:53:50;;;;;;;12.33;9.97;;;;;;;4.34;100.00;98517.13;5008933;28;20204;-75
2021/11/17 08:56:18;;;;;;;13.27;10.47;;;;;;;4.31;100.00;98518.19;5016952;28;20211;-76
2021/11/17 08:58:46;;;;;;;12.80;10.00;;;;;;;4.38;100.00;98521.22;5021610;28;20212;-76
2021/11/17 09:01:17;;;;;;;11.70;10.10;;;;;;;4.34;100.00;98525.81;4967791;28;20493;-76
2021/11/17 09:03:48;;;;;;;14.70;10.33;;;;;;;4.48;100.00;98522.19;5011311;28;20219;-75
2021/11/17 09:06:17;;;;;;;11.37;10.17;;;;;;;4.44;100.00;98523.38;5013963;28;20472;-75
2021/11/17 09:08:45;;;;;;;15.00;10.13;;;;;;;4.32;100.00;98526.91;5019443;28;20228;-76
2021/11/17 09:11:17;;;;;;;12.47;10.53;;;;;;;4.30;100.00;98529.63;5015625;28;20469;-74
2021/11/17 09:13:46;;;;;;;11.57;10.00;;;;;;;4.33;100.00;98532.03;5020923;28;20588;-75
2021/11/17 09:16:15;;;;;;;14.97;11.73;;;;;;;4.30;100.00;98534.06;4973616;28;20228;-77
2021/11/17 09:18:43;;;;;;;10.57;9.33;;;;;;;4.31;100.00;98533.94;5022046;28;20669;-77
2021/11/17 09:21:13;;;;;;;11.87;9.10;;;;;;;4.33;100.00;98532.03;5016906;28;20315;-76
2021/11/17 09:23:42;;;;;;;14.57;10.30;;;;;;;4.39;100.00;98537.81;5021063;28;20222;-76
2021/11/17 09:26:17;;;;;;;11.23;9.93;;;;;;;4.34;100.00;98536.31;5013173;28;20802;-75
2021/11/17 09:28:45;;;;;;;10.40;9.10;;;;;;;4.35;100.00;98534.56;5022934;28;20253;-72
2021/11/17 09:31:14;;;;;;;10.10;8.90;;;;;;;4.40;100.00;98539.47;4978817;28;20908;-73
2021/11/17 09:33:45;;;;;;;10.53;9.37;;;;;;;4.39;100.00;98535.19;5021070;28;20216;-75
2021/11/17 09:36:13;;;;;;;11.57;9.00;;;;;;;4.33;100.00;98539.91;4987504;28;20239;-73
2021/11/17 09:38:42;;;;;;;9.60;8.60;;;;;;;4.27;100.00;98540.34;5022113;28;20227;-71
2021/11/17 09:41:12;;;;;;;10.47;9.30;;;;;;;4.19;100.00;98546.16;5019372;28;20231;-73
2021/11/17 09:43:45;;;;;;;11.03;9.27;;;;;;;4.29;100.00;98546.31;5025130;28;20206;-75
2021/11/17 09:46:19;;;;;;;9.93;8.37;;;;;;;4.40;100.00;98540.31;5022493;28;20243;-72
2021/11/17 09:48:49;;;;;;;11.20;8.97;;;;;;;4.19;100.00;98545.31;5025407;28;20227;-74
2021/11/17 09:51:20;;;;;;;10.57;9.53;;;;;;;4.33;100.00;98550.41;4990034;28;20238;-74
2021/11/17 09:53:51;;;;;;;9.40;8.40;;;;;;;4.26;100.00;98545.72;5015309;28;20218;-75
2021/11/17 09:56:21;;;;;;;9.20;8.30;;;;;;;4.22;100.00;98546.88;5019276;28;20225;-73
2021/11/17 09:58:54;;;;;;;11.67;9.37;;;;;;;4.24;100.00;98547.63;5022385;28;20219;-74
2021/11/17 10:01:31;;;;;;;9.53;8.33;;;;;;;4.24;100.00;98550.25;5016900;28;20487;-75
2021/11/17 10:04:05;;;;;;;10.30;8.70;;;;;;;4.16;100.00;98543.72;5020433;28;20686;-72
2021/11/17 10:15:14;;;;;;;9.13;8.00;;;;;;;4.37;100.00;98563.31;5019253;28;20634;-75
2021/11/17 10:17:46;;;;;;;9.30;7.57;;;;;;;4.34;100.00;98559.13;5018337;28;20200;-75
2021/11/17 10:20:19;;;;;;;8.53;7.63;;;;;;;4.45;100.00;98553.91;5017265;28;20207;-74
2021/11/17 10:22:51;;;;;;;9.47;8.47;;;;;;;4.56;100.00;98550.53;4986986;28;20227;-74
2021/11/17 10:25:22;;;;;;;8.70;7.83;;;;;;;4.57;100.00;98536.44;5012436;28;20208;-74
2021/11/17 10:27:56;;;;;;;9.13;7.83;;;;;;;4.57;100.00;98544.31;5027499;28;20719;-72
2021/11/17 10:30:31;;;;;;;8.87;7.97;;;;;;;4.56;100.00;98545.28;5018878;28;21098;-75
2021/11/17 10:33:04;;;;;;;7.67;6.97;;;;;;;4.66;100.00;98540.19;5027209;28;20203;-75
2021/11/17 10:36:25;;;;;;;8.20;6.67;;;;;;;4.81;100.00;98537.38;5015067;28;20327;-76
2021/11/17 10:38:57;;;;;;;6.83;6.23;;;;;;;5.00;100.00;98542.94;4990769;28;20656;-76
2021/11/17 10:41:27;;;;;;;9.13;6.97;;;;;;;5.00;100.00;98542.09;5018750;28;20235;-74
2021/11/17 10:44:03;;;;;;;7.73;6.93;;;;;;;5.02;100.00;98538.41;5020924;28;20199;-77
2021/11/17 10:46:35;;;;;;;7.63;6.83;;;;;;;5.08;100.00;98547.59;5016274;28;20747;-75
2021/11/17 10:49:10;;;;;;;7.50;6.90;;;;;;;4.91;100.00;98548.88;5027456;28;20264;-75
2021/11/17 10:51:51;;;;;;;7.57;6.90;;;;;;;4.85;100.00;98544.91;5021446;28;20843;-75
2021/11/17 10:54:25;;;;;;;9.10;7.00;;;;;;;4.81;100.00;98555.75;4987787;28;20267;-74
2021/11/17 10:57:02;;;;;;;6.80;6.10;;;;;;;4.85;100.00;98549.31;5021019;28;20215;-76
2021/11/17 10:59:31;;;;;;;6.63;6.03;;;;;;;4.78;100.00;98554.22;5018887;28;20325;-77
2021/11/17 11:02:01;;;;;;;5.63;5.13;;;;;;;4.76;100.00;98553.50;5021887;28;20600;-76
2021/11/17 11:04:34;;;;;;;7.53;5.80;;;;;;;4.66;100.00;98555.09;5012221;28;20427;-75
2021/11/17 11:07:08;;;;;;;5.93;5.43;;;;;;;4.75;100.00;98559.69;5020254;28;20212;-74
2021/11/17 11:09:39;;;;;;;5.63;5.07;;;;;;;4.64;100.00;98558.66;5001984;28;20425;-75
2021/11/17 11:12:07;;;;;;;7.00;5.80;;;;;;;4.72;100.00;98560.75;5011003;28;20608;-72
2021/11/17 11:14:45;;;;;;;6.30;5.70;;;;;;;4.64;100.00;98566.53;5014096;28;20874;-75
2021/11/17 11:17:28;;;;;;;6.90;6.20;;;;;;;4.66;100.00;98557.72;5012998;28;20207;-75
2021/11/17 11:20:34;;;;;;;7.27;6.57;;;;;;;4.81;100.00;98553.97;5019999;28;20456;-76
2021/11/17 11:23:18;;;;;;;6.50;5.77;;;;;;;4.85;100.00;98558.06;5018051;28;20215;-76
2021/11/17 11:25:58;;;;;;;6.90;6.23;;;;;;;4.68;100.00;98559.28;5018095;28;20538;-77
2021/11/17 11:28:30;;;;;;;6.87;6.27;;;;;;;4.66;100.00;98553.31;5012550;28;20231;-75
2021/11/17 11:31:34;;;;;;;6.93;6.03;;;;;;;4.82;100.00;98560.91;5023689;28;20227;-77
2021/11/17 11:34:33;;;;;;;7.60;6.90;;;;;;;4.71;100.00;98547.72;5023711;28;20200;-75
2021/11/17 11:37:03;;;;;;;9.23;7.03;;;;;;;4.67;100.00;98544.50;5016862;28;20702;-75
2021/11/17 11:39:37;;;;;;;7.77;6.97;;;;;;;4.63;100.00;98536.00;4983502;28;20809;-76
2021/11/17 11:42:20;;;;;;;6.30;5.53;;;;;;;4.60;100.00;98538.03;5016342;28;20810;-76
2021/11/17 11:44:50;;;;;;;6.13;5.60;;;;;;;4.77;100.00;98529.72;4989752;28;20433;-77
2021/11/17 11:47:35;;;;;;;6.77;6.03;;;;;;;4.60;100.00;98527.53;5017700;28;20255;-74
2021/11/17 11:50:49;;;;;;;8.27;6.33;;;;;;;4.60;100.00;98535.41;5019231;28;20231;-74
2021/11/17 11:53:21;;;;;;;7.20;6.47;;;;;;;4.58;100.00;98543.38;5007582;28;20272;-73
2021/11/17 11:56:31;;;;;;;7.63;6.93;;;;;;;4.60;100.00;98548.53;5011936;28;20804;-76
2021/11/17 11:59:05;;;;;;;7.17;6.47;;;;;;;4.80;100.00;98554.09;4986643;28;20208;-75
2021/11/17 12:01:35;;;;;;;5.90;5.37;;;;;;;4.66;100.00;98555.94;5013456;28;20228;-74
2021/11/17 12:04:09;;;;;;;7.73;6.23;;;;;;;4.49;100.00;98555.38;5020231;28;20235;-77
2021/11/17 12:06:48;;;;;;;6.60;5.97;;;;;;;4.52;100.00;98564.81;5013282;28;20295;-74
2021/11/17 12:09:22;;;;;;;9.43;6.80;;;;;;;4.47;100.00;98561.69;5015386;28;20318;-76
2021/11/17 12:12:03;;;;;;;7.47;6.73;;;;;;;4.37;100.00;98563.31;5014718;28;20905;-75
2021/11/17 12:14:38;;;;;;;7.20;6.50;;;;;;;4.36;100.00;98572.97;4984698;28;20307;-74
2021/11/17 12:17:08;;;;;;;10.07;7.23;;;;;;;4.28;100.00;98559.56;5017603;28;20207;-75
2021/11/17 12:19:40;;;;;;;8.60;6.97;;;;;;;4.24;100.00;98566.81;5021195;28;20772;-74
2021/11/17 12:22:18;;;;;;;8.23;7.17;;;;;;;4.24;100.00;98581.72;5023829;28;20345;-73
2021/11/17 12:24:50;;;;;;;6.80;6.20;;;;;;;4.07;100.00;98578.50;5007501;28;20224;-75
2021/11/17 12:27:20;;;;;;;7.47;6.70;;;;;;;4.10;100.00;98580.06;5016258;28;20195;-74
2021/11/17 12:29:56;;;;;;;9.47;7.60;;;;;;;4.12;100.00;98578.19;4985271;28;20449;-76
2021/11/17 12:32:30;;;;;;;9.77;8.27;;;;;;;4.22;100.00;98560.00;5013136;28;20514;-75
2021/11/17 12:35:06;;;;;;;7.37;6.67;;;;;;;4.38;100.00;98560.56;5023783;28;20206;-75
2021/11/17 12:37:45;;;;;;;8.70;7.80;;;;;;;4.30;100.00;98561.13;5014489;28;20557;-73
2021/11/17 12:40:16;;;;;;;9.40;7.23;;;;;;;4.24;100.00;98566.81;5014216;28;20445;-76
2021/11/17 12:42:51;;;;;;;7.67;6.87;;;;;;;4.30;100.00;98566.34;5017176;28;20474;-75
2021/11/17 12:45:23;;;;;;;7.50;6.63;;;;;;;4.30;100.00;98568.97;4978054;28;20539;-74
2021/11/17 12:47:58;;;;;;;7.17;6.47;;;;;;;4.40;100.00;98563.09;5016237;28;20799;-76
2021/11/17 12:50:57;;;;;;;7.90;7.10;;;;;;;4.33;100.00;98566.13;5013678;28;20715;-74
2021/11/17 12:53:38;;;;;;;6.83;6.23;;;;;;;4.39;100.00;98562.25;5012633;28;20210;-74
2021/11/17 12:56:25;;;;;;;6.77;6.07;;;;;;;4.44;100.00;98557.50;5009881;28;20219;-77
2021/11/17 12:58:57;;;;;;;7.13;6.43;;;;;;;4.34;100.00;98567.81;4988742;28;20865;-72
2021/11/17 13:01:35;;;;;;;8.17;6.17;;;;;;;4.30;100.00;98568.97;5019298;28;20227;-73
2021/11/17 13:04:18;;;;;;;7.07;6.37;;;;;;;4.37;100.00;98571.19;5018643;28;20286;-74
2021/11/17 13:06:50;;;;;;;5.70;5.20;;;;;;;4.26;100.00;98575.41;5019792;28;20286;-74
2021/11/17 13:09:23;;;;;;;6.03;5.53;;;;;;;4.24;100.00;98582.53;5017575;28;20346;-73
2021/11/17 13:12:16;;;;;;;6.60;5.53;;;;;;;4.03;100.00;98583.13;4993941;28;20247;-74
2021/11/17 13:15:21;;;;;;;6.43;5.60;;;;;;;4.01;100.00;98582.41;4990481;28;20216;-75
2021/11/17 13:17:49;;;;;;;7.27;5.73;;;;;;;4.17;100.00;98579.53;5021007;28;20212;-74
2021/11/17 13:20:40;;;;;;;6.20;5.63;;;;;;;4.23;100.00;98582.69;5020764;28;20539;-73
2021/11/17 13:23:25;;;;;;;7.63;5.90;;;;;;;4.19;100.00;98585.50;5005983;28;20699;-71
2021/11/17 13:26:00;;;;;;;5.90;5.40;;;;;;;4.09;100.00;98584.47;5023685;28;20208;-72
2021/11/17 13:28:40;;;;;;;5.80;5.27;;;;;;;4.08;100.00;98588.03;5009657;28;20742;-74
2021/11/17 13:31:29;;;;;;;6.63;4.93;;;;;;;4.11;100.00;98579.94;4987322;28;20240;-73
2021/11/17 13:33:59;;;;;;;5.20;4.50;;;;;;;4.05;100.00;98578.63;5020525;28;20303;-74
2021/11/17 13:36:40;;;;;;;6.47;5.87;;;;;;;4.10;100.00;98590.56;5020688;28;20418;-74
2021/11/17 13:39:09;;;;;;;5.63;5.13;;;;;;;3.97;100.00;98583.53;5023894;28;20208;-73
2021/11/17 13:41:43;;;;;;;6.43;5.90;;;;;;;3.99;100.00;98586.94;5023837;28;20220;-73
2021/11/17 13:44:13;;;;;;;5.70;5.20;;;;;;;4.02;100.00;98596.34;5011804;28;20216;-73
2021/11/17 13:46:58;;;;;;;5.70;5.13;;;;;;;4.01;100.00;98599.91;4988695;28;20691;-74
2021/11/17 13:49:27;;;;;;;5.80;5.30;;;;;;;4.09;100.00;98599.38;5023945;28;20220;-74
2021/11/17 13:51:56;;;;;;;4.77;4.30;;;;;;;4.06;100.00;98595.19;4981772;28;20231;-74
2021/11/17 13:54:25;;;;;;;5.60;5.10;;;;;;;4.16;100.00;98598.81;5020183;28;20375;-74
2021/11/17 13:56:55;;;;;;;5.80;5.30;;;;;;;4.13;100.00;98598.22;5024974;28;20219;-75
2021/11/17 13:59:24;;;;;;;5.60;5.10;;;;;;;4.14;100.00;98597.28;5009768;28;20219;-74
2021/11/17 14:01:56;;;;;;;5.37;4.87;;;;;;;4.08;100.00;98597.72;5024689;28;20228;-74
2021/11/17 14:04:24;;;;;;;6.47;4.77;;;;;;;4.05;100.00;98604.84;5020087;28;20437;-74
2021/11/17 14:06:54;;;;;;;4.33;4.03;;;;;;;4.11;100.00;98606.19;4990277;28;20680;-74
2021/11/17 14:09:22;;;;;;;6.83;4.70;;;;;;;4.03;100.00;98598.88;5020028;28;20342;-74
2021/11/17 14:11:50;;;;;;;5.50;5.00;;;;;;;4.03;100.00;98604.13;5025924;28;20220;-74
2021/11/17 14:14:20;;;;;;;4.27;3.97;;;;;;;3.97;100.00;98612.38;5000416;28;20208;-73
2021/11/17 14:16:49;;;;;;;7.17;5.40;;;;;;;4.11;100.00;98610.59;5023260;28;20204;-74
2021/11/17 14:19:18;;;;;;;4.43;4.13;;;;;;;4.07;100.00;98612.59;5016581;28;20295;-73
2021/11/17 14:21:46;;;;;;;4.80;4.43;;;;;;;3.86;100.00;98610.53;4990668;28;20588;-74
2021/11/17 14:24:14;;;;;;;4.93;4.53;;;;;;;3.88;100.00;98619.13;5015555;28;21009;-76
2021/11/17 14:26:44;;;;;;;4.77;4.37;;;;;;;3.88;100.00;98623.53;5026333;28;20518;-77
2021/11/17 14:29:17;;;;;;;4.93;4.57;;;;;;;3.91;100.00;98618.91;5014044;28;20743;-75
2021/11/17 14:31:52;;;;;;;5.30;4.80;;;;;;;3.84;100.00;98619.44;5022818;28;20715;-78
2021/11/17 14:34:21;;;;;;;5.70;5.20;;;;;;;3.73;100.00;98621.03;5015494;28;20687;-74
2021/11/17 14:36:52;;;;;;;5.73;4.73;;;;;;;3.78;100.00;98628.56;4992130;28;20211;-75
2021/11/17 14:39:22;;;;;;;5.33;4.87;;;;;;;3.71;100.00;98628.16;5020658;28;20227;-73
2021/11/17 14:41:50;;;;;;;5.00;4.60;;;;;;;3.76;100.00;98630.44;5026088;28;20224;-75
2021/11/17 14:44:18;;;;;;;5.23;4.63;;;;;;;3.76;100.00;98630.44;5012539;28;20651;-74
2021/11/17 14:46:47;;;;;;;5.27;4.87;;;;;;;3.70;100.00;98634.34;5027100;28;20203;-74